Time;durP1;ratioP1;P1;durP2;ratioP2;P2;SDS_P1;SDS_P2;PMS_P1;PMS_P2;Temp;Humidity;BMP_temperature;BMP_pressure;BME280_temperature;BME280_humidity;BME280_pressure;Samples;Min_cycle;Max_cycle;Signal;HPM_P1;HPM_P2
2020/12/10 00:00:10;;;;;;;;;;;;;;;;;;5030690;28;20008;-66
2020/12/10 00:02:37;;;;;;;;;;;;;;;;;;5027372;28;20071;-64
2020/12/10 00:05:03;;;;;;;;;;;;;;;;;;5030467;28;19929;-63
2020/12/10 00:07:30;;;;;;;;;;;;;;;;;;5027158;28;19929;-62
2020/12/10 00:09:56;;;;;;;;;;;;;;;;;;5031186;28;19948;-63
2020/12/10 00:12:23;;;;;;;;;;;;;;;;;;5014313;28;19973;-65
2020/12/10 00:14:53;;;;;;;;;;;;;;;;;;5026675;28;19933;-65
2020/12/10 00:17:20;;;;;;;;;;;;;;;;;;5020579;28;19925;-64
2020/12/10 00:19:46;;;;;;;;;;;;;;;;;;5029334;28;20012;-62
2020/12/10 00:22:13;;;;;;;;;;;;;;;;;;5023151;28;19931;-64
2020/12/10 00:24:39;;;;;;;;;;;;;;;;;;5017191;28;20004;-64
2020/12/10 00:27:06;;;;;;;;;;;;;;;;;;5026070;28;19980;-63
2020/12/10 00:29:32;;;;;;;;;;;;;;;;;;5034146;28;19929;-63
2020/12/10 00:31:59;;;;;;;;;;;;;;;;;;5023601;28;19926;-64
2020/12/10 00:34:25;;;;;;;;;;;;;;;;;;5021473;28;19926;-65
2020/12/10 00:36:52;;;;;;;;;;;;;;;;;;5029731;28;20063;-65
2020/12/10 00:39:18;;;;;;;;;;;;;;;;;;5030723;28;19932;-66
2020/12/10 00:41:45;;;;;;;;;;;;;;;;;;5027294;28;19931;-63
2020/12/10 00:44:11;;;;;;;;;;;;;;;;;;5024293;28;19925;-62
2020/12/10 00:46:38;;;;;;;;;;;;;;;;;;5029249;28;20298;-64
2020/12/10 00:49:04;;;;;;;;;;;;;;;;;;5030826;28;19932;-64
2020/12/10 00:51:31;;;;;;;;;;;;;;;;;;5026014;28;19965;-63
2020/12/10 00:53:57;;;;;;;;;;;;;;;;;;5025541;28;20381;-63
2020/12/10 00:56:24;;;;;;;;;;;;;;;;;;5032426;28;19931;-64
2020/12/10 00:58:50;;;;;;;;;;;;;;;;;;5024004;28;20384;-63
2020/12/10 01:01:17;;;;;;;;;;;;;;;;;;5028633;28;19925;-63
2020/12/10 01:03:43;;;;;;;;;;;;;;;;;;5034355;28;20312;-63
2020/12/10 01:06:10;;;;;;;;;;;;;;;;;;5035238;28;19931;-65
2020/12/10 01:08:36;;;;;;;;;;;;;;;;;;5019436;28;20294;-65
2020/12/10 01:11:03;;;;;;;;;;;;;;;;;;5031593;28;20016;-65
2020/12/10 01:13:29;;;;;;;;;;;;;;;;;;5029111;28;20390;-66
2020/12/10 01:15:56;;;;;;;;;;;;;;;;;;5033700;28;20024;-62
2020/12/10 01:18:22;;;;;;;;;;;;;;;;;;5020294;28;19931;-63
2020/12/10 01:20:49;;;;;;;;;;;;;;;;;;5024405;28;19932;-63
2020/12/10 01:23:15;;;;;;;;;;;;;;;;;;5027112;28;19925;-64
2020/12/10 01:25:42;;;;;;;;;;;;;;;;;;5032841;28;20009;-64
2020/12/10 01:28:08;;;;;;;;;;;;;;;;;;5023309;28;19925;-63
2020/12/10 01:30:35;;;;;;;;;;;;;;;;;;5033974;28;20384;-67
2020/12/10 01:33:01;;;;;;;;;;;;;;;;;;5024822;28;19926;-62
2020/12/10 01:35:28;;;;;;;;;;;;;;;;;;5029177;28;19925;-66
2020/12/10 01:37:54;;;;;;;;;;;;;;;;;;5022595;28;20325;-65
2020/12/10 01:40:21;;;;;;;;;;;;;;;;;;5027176;28;19925;-61
2020/12/10 01:42:47;;;;;;;;;;;;;;;;;;5021321;28;20402;-63
2020/12/10 01:45:14;;;;;;;;;;;;;;;;;;5022096;28;19983;-66
2020/12/10 01:47:40;;;;;;;;;;;;;;;;;;5025772;28;19976;-70
2020/12/10 01:50:08;;;;;;;;;;;;;;;;;;5027505;28;20312;-66
2020/12/10 01:52:34;;;;;;;;;;;;;;;;;;5024722;28;19979;-64
2020/12/10 01:55:01;;;;;;;;;;;;;;;;;;5026136;28;20416;-64
2020/12/10 01:57:27;;;;;;;;;;;;;;;;;;5034083;28;19931;-64
2020/12/10 01:59:54;;;;;;;;;;;;;;;;;;5032263;28;20403;-64
2020/12/10 02:02:20;;;;;;;;;;;;;;;;;;5032961;28;19931;-64
2020/12/10 02:04:47;;;;;;;;;;;;;;;;;;5028145;28;19983;-64
2020/12/10 02:07:13;;;;;;;;;;;;;;;;;;5023962;28;19929;-63
2020/12/10 02:09:40;;;;;;;;;;;;;;;;;;5021635;28;19925;-62
2020/12/10 02:12:06;;;;;;;;;;;;;;;;;;5015829;28;19925;-63
2020/12/10 02:14:33;;;;;;;;;;;;;;;;;;5020238;28;19929;-64
2020/12/10 02:16:59;;;;;;;;;;;;;;;;;;5018579;28;19925;-66
2020/12/10 02:19:26;;;;;;;;;;;;;;;;;;5030897;28;19925;-64
2020/12/10 02:21:52;;;;;;;;;;;;;;;;;;5031594;28;19933;-64
2020/12/10 02:29:48;;;;;;;;;;;;;;;;;;5033017;28;19966;-64
2020/12/10 02:32:15;;;;;;;;;;;;;;;;;;5023823;28;19979;-68
2020/12/10 02:34:41;;;;;;;;;;;;;;;;;;5019426;28;20400;-62
2020/12/10 02:37:08;;;;;;;;;;;;;;;;;;5024814;28;19969;-64
2020/12/10 02:39:34;;;;;;;;;;;;;;;;;;5025557;28;20017;-63
2020/12/10 02:42:01;;;;;;;;;;;;;;;;;;5024885;28;19983;-66
2020/12/10 02:44:27;;;;;;;;;;;;;;;;;;5025636;28;20300;-63
2020/12/10 02:46:54;;;;;;;;;;;;;;;;;;5014570;28;19925;-62
2020/12/10 02:49:20;;;;;;;;;;;;;;;;;;5017209;28;20101;-62
2020/12/10 02:51:47;;;;;;;;;;;;;;;;;;5022382;28;19925;-63
2020/12/10 02:54:13;;;;;;;;;;;;;;;;;;5029218;28;19972;-64
2020/12/10 02:56:40;;;;;;;;;;;;;;;;;;5031864;28;20396;-66
2020/12/10 02:59:07;;;;;;;;;;;;;;;;;;5028362;28;20004;-63
2020/12/10 03:01:35;;;;;;;;;;;;;;;;;;5021268;28;20385;-62
2020/12/10 03:04:02;;;;;;;;;;;;;;;;;;5024575;28;20009;-63
2020/12/10 03:06:28;;;;;;;;;;;;;;;;;;5032974;28;19931;-68
2020/12/10 03:08:55;;;;;;;;;;;;;;;;;;5031417;28;19925;-63
2020/12/10 03:11:21;;;;;;;;;;;;;;;;;;5032658;28;19925;-64
2020/12/10 03:13:48;;;;;;;;;;;;;;;;;;5030042;28;19931;-64
2020/12/10 03:16:14;;;;;;;;;;;;;;;;;;5027147;28;19993;-63
2020/12/10 03:18:41;;;;;;;;;;;;;;;;;;5021181;28;19925;-62
2020/12/10 03:21:07;;;;;;;;;;;;;;;;;;5030275;28;20453;-63
2020/12/10 03:23:34;;;;;;;;;;;;;;;;;;5026835;28;20013;-63
2020/12/10 03:26:00;;;;;;;;;;;;;;;;;;5024661;28;19925;-62
2020/12/10 03:28:27;;;;;;;;;;;;;;;;;;5031810;28;20016;-65
2020/12/10 03:30:54;;;;;;;;;;;;;;;;;;5023702;28;19929;-64
2020/12/10 03:33:20;;;;;;;;;;;;;;;;;;5022056;28;20024;-63
2020/12/10 03:35:47;;;;;;;;;;;;;;;;;;5032484;28;20273;-64
2020/12/10 03:38:13;;;;;;;;;;;;;;;;;;5028558;28;19929;-64
2020/12/10 03:40:40;;;;;;;;;;;;;;;;;;5031680;28;20324;-64
2020/12/10 03:43:07;;;;;;;;;;;;;;;;;;5024586;28;20361;-62
2020/12/10 03:45:33;;;;;;;;;;;;;;;;;;5031352;28;20019;-63
2020/12/10 03:48:00;;;;;;;;;;;;;;;;;;5030283;28;19925;-62
2020/12/10 03:50:26;;;;;;;;;;;;;;;;;;5023528;28;19925;-63
2020/12/10 03:52:53;;;;;;;;;;;;;;;;;;5016440;28;19933;-63
2020/12/10 03:55:19;;;;;;;;;;;;;;;;;;5023280;28;20333;-64
2020/12/10 03:57:46;;;;;;;;;;;;;;;;;;5025676;28;19925;-63
2020/12/10 04:00:12;;;;;;;;;;;;;;;;;;5017978;28;19925;-62
2020/12/10 04:02:39;;;;;;;;;;;;;;;;;;5023018;28;19925;-62
2020/12/10 04:05:05;;;;;;;;;;;;;;;;;;5026785;28;19932;-63
2020/12/10 04:07:32;;;;;;;;;;;;;;;;;;5027894;28;19932;-63
2020/12/10 04:09:58;;;;;;;;;;;;;;;;;;5015428;28;20012;-63
2020/12/10 04:12:25;;;;;;;;;;;;;;;;;;5021803;28;19931;-63
2020/12/10 04:14:52;;;;;;;;;;;;;;;;;;5022251;28;19932;-63
2020/12/10 04:17:18;;;;;;;;;;;;;;;;;;5021065;28;19987;-62
2020/12/10 04:19:45;;;;;;;;;;;;;;;;;;5022873;28;19925;-62
2020/12/10 04:22:11;;;;;;;;;;;;;;;;;;5031295;28;19932;-66
2020/12/10 04:24:38;;;;;;;;;;;;;;;;;;5025392;28;19940;-63
2020/12/10 04:27:05;;;;;;;;;;;;;;;;;;5021578;28;20374;-63
2020/12/10 04:29:31;;;;;;;;;;;;;;;;;;5015561;28;19924;-65
2020/12/10 04:31:58;;;;;;;;;;;;;;;;;;5026472;28;19936;-63
2020/12/10 04:34:24;;;;;;;;;;;;;;;;;;5024474;28;19925;-69
2020/12/10 04:36:51;;;;;;;;;;;;;;;;;;5023167;28;19925;-61
2020/12/10 04:39:17;;;;;;;;;;;;;;;;;;5023987;28;19933;-63
2020/12/10 04:41:45;;;;;;;;;;;;;;;;;;5028568;28;20024;-63
2020/12/10 04:44:12;;;;;;;;;;;;;;;;;;5020395;28;19925;-64
2020/12/10 04:46:38;;;;;;;;;;;;;;;;;;5027516;28;20352;-62
2020/12/10 04:49:06;;;;;;;;;;;;;;;;;;5021624;28;19926;-62
2020/12/10 04:51:33;;;;;;;;;;;;;;;;;;5031482;28;19990;-62
2020/12/10 04:53:59;;;;;;;;;;;;;;;;;;5030722;28;20019;-63
2020/12/10 04:56:26;;;;;;;;;;;;;;;;;;5016353;28;19926;-62
2020/12/10 04:58:52;;;;;;;;;;;;;;;;;;5029428;28;19932;-63
2020/12/10 05:01:20;;;;;;;;;;;;;;;;;;5025780;28;20031;-63
2020/12/10 05:03:46;;;;;;;;;;;;;;;;;;5027910;28;19925;-64
2020/12/10 05:06:13;;;;;;;;;;;;;;;;;;5026865;28;19929;-64
2020/12/10 05:08:39;;;;;;;;;;;;;;;;;;5031739;28;19932;-64
2020/12/10 05:11:06;;;;;;;;;;;;;;;;;;5027770;28;19969;-63
2020/12/10 05:13:33;;;;;;;;;;;;;;;;;;5030258;28;20439;-62
2020/12/10 05:15:59;;;;;;;;;;;;;;;;;;5028899;28;19969;-63
2020/12/10 05:18:27;;;;;;;;;;;;;;;;;;5026728;28;19990;-63
2020/12/10 05:20:54;;;;;;;;;;;;;;;;;;5031004;28;19972;-63
2020/12/10 05:23:21;;;;;;;;;;;;;;;;;;5036180;28;20290;-67
2020/12/10 05:25:47;;;;;;;;;;;;;;;;;;5034600;28;19925;-63
2020/12/10 05:28:14;;;;;;;;;;;;;;;;;;5033815;28;20019;-63
2020/12/10 05:30:40;;;;;;;;;;;;;;;;;;5035065;28;19925;-68
2020/12/10 05:33:07;;;;;;;;;;;;;;;;;;5024395;28;19926;-65
2020/12/10 05:35:33;;;;;;;;;;;;;;;;;;5018063;28;20288;-63
2020/12/10 05:38:00;;;;;;;;;;;;;;;;;;5019407;28;20490;-63
2020/12/10 05:40:36;;;;;;;;;;;;;;;;;;5018644;28;20012;-64
2020/12/10 05:43:03;;;;;;;;;;;;;;;;;;5021692;28;20194;-63
2020/12/10 05:45:29;;;;;;;;;;;;;;;;;;5016580;28;20008;-63
2020/12/10 05:47:56;;;;;;;;;;;;;;;;;;5022720;28;19936;-63
2020/12/10 05:50:25;;;;;;;;;;;;;;;;;;5031024;28;19961;-63
2020/12/10 05:52:51;;;;;;;;;;;;;;;;;;5030731;28;19973;-63
2020/12/10 05:55:19;;;;;;;;;;;;;;;;;;5016828;28;20020;-63
2020/12/10 05:57:46;;;;;;;;;;;;;;;;;;5027538;28;19931;-63
2020/12/10 06:00:13;;;;;;;;;;;;;;;;;;5030648;28;19994;-63
2020/12/10 06:02:39;;;;;;;;;;;;;;;;;;5021149;28;20440;-64
2020/12/10 06:05:06;;;;;;;;;;;;;;;;;;5031381;28;19939;-64
2020/12/10 06:07:32;;;;;;;;;;;;;;;;;;5021584;28;19932;-63
2020/12/10 06:09:59;;;;;;;;;;;;;;;;;;5031121;28;19931;-64
2020/12/10 06:12:25;;;;;;;;;;;;;;;;;;5028860;28;19979;-64
2020/12/10 06:14:52;;;;;;;;;;;;;;;;;;5026632;28;19976;-64
2020/12/10 06:17:18;;;;;;;;;;;;;;;;;;5026362;28;19968;-63
2020/12/10 06:19:45;;;;;;;;;;;;;;;;;;5030694;28;20437;-63
2020/12/10 06:22:11;;;;;;;;;;;;;;;;;;5027997;28;19936;-62
2020/12/10 06:24:38;;;;;;;;;;;;;;;;;;5020722;28;20298;-62
2020/12/10 06:27:04;;;;;;;;;;;;;;;;;;5024050;28;19925;-62
2020/12/10 06:29:31;;;;;;;;;;;;;;;;;;5021486;28;19932;-62
2020/12/10 06:31:57;;;;;;;;;;;;;;;;;;5022916;28;19931;-62
2020/12/10 06:34:24;;;;;;;;;;;;;;;;;;5019909;28;20296;-64
2020/12/10 06:36:50;;;;;;;;;;;;;;;;;;5028887;28;19932;-64
2020/12/10 06:39:17;;;;;;;;;;;;;;;;;;5033345;28;19929;-63
2020/12/10 06:41:43;;;;;;;;;;;;;;;;;;5030331;28;19936;-63
2020/12/10 06:44:11;;;;;;;;;;;;;;;;;;5033129;28;19929;-63
2020/12/10 06:46:38;;;;;;;;;;;;;;;;;;5026421;28;19926;-63
2020/12/10 06:49:04;;;;;;;;;;;;;;;;;;5019471;28;19925;-64
2020/12/10 06:51:31;;;;;;;;;;;;;;;;;;5027141;28;19925;-63
2020/12/10 06:53:57;;;;;;;;;;;;;;;;;;5024787;28;19926;-63
2020/12/10 06:56:24;;;;;;;;;;;;;;;;;;5016279;28;19984;-63
2020/12/10 06:58:52;;;;;;;;;;;;;;;;;;5032524;28;20024;-64
2020/12/10 07:01:18;;;;;;;;;;;;;;;;;;5029535;28;20008;-63
2020/12/10 07:03:45;;;;;;;;;;;;;;;;;;5032462;28;19925;-63
2020/12/10 07:06:12;;;;;;;;;;;;;;;;;;5018732;28;19929;-62
2020/12/10 07:08:38;;;;;;;;;;;;;;;;;;5022494;28;19925;-63
2020/12/10 07:11:05;;;;;;;;;;;;;;;;;;5025017;28;19925;-64
2020/12/10 07:16:12;;;;;;;;;;;;;;;;;;5031702;28;20378;-63
2020/12/10 07:18:38;;;;;;;;;;;;;;;;;;5024156;28;19926;-64
2020/12/10 07:21:05;;;;;;;;;;;;;;;;;;5029489;28;19925;-64
2020/12/10 07:23:31;;;;;;;;;;;;;;;;;;5028698;28;19926;-64
2020/12/10 07:25:58;;;;;;;;;;;;;;;;;;5021653;28;19933;-63
2020/12/10 07:28:24;;;;;;;;;;;;;;;;;;5017876;28;19981;-63
2020/12/10 07:30:51;;;;;;;;;;;;;;;;;;5031672;28;20353;-64
2020/12/10 07:33:17;;;;;;;;;;;;;;;;;;5019655;28;19929;-67
2020/12/10 07:35:44;;;;;;;;;;;;;;;;;;5032328;28;19925;-67
2020/12/10 07:38:10;;;;;;;;;;;;;;;;;;5021097;28;19933;-67
2020/12/10 07:40:37;;;;;;;;;;;;;;;;;;5015667;28;19969;-65
2020/12/10 07:43:03;;;;;;;;;;;;;;;;;;5020919;28;20322;-65
2020/12/10 07:45:30;;;;;;;;;;;;;;;;;;5019475;28;20028;-67
2020/12/10 07:47:56;;;;;;;;;;;;;;;;;;5024587;28;19925;-67
2020/12/10 07:50:23;;;;;;;;;;;;;;;;;;5023490;28;19929;-66
2020/12/10 07:52:50;;;;;;;;;;;;;;;;;;5026799;28;20378;-67
2020/12/10 07:55:17;;;;;;;;;;;;;;;;;;5025550;28;19929;-63
2020/12/10 07:57:45;;;;;;;;;;;;;;;;;;5032244;28;20328;-63
2020/12/10 08:00:11;;;;;;;;;;;;;;;;;;5027779;28;19985;-62
2020/12/10 08:02:38;;;;;;;;;;;;;;;;;;5030525;28;19964;-64
2020/12/10 08:05:04;;;;;;;;;;;;;;;;;;5028302;28;20040;-65
2020/12/10 08:07:31;;;;;;;;;;;;;;;;;;5032669;28;19926;-64
2020/12/10 08:09:57;;;;;;;;;;;;;;;;;;5021150;28;20296;-63
2020/12/10 08:12:26;;;;;;;;;;;;;;;;;;5031722;28;19933;-64
2020/12/10 08:14:53;;;;;;;;;;;;;;;;;;5028588;28;20024;-64
2020/12/10 08:17:20;;;;;;;;;;;;;;;;;;5031763;28;19925;-63
2020/12/10 08:19:46;;;;;;;;;;;;;;;;;;5026770;28;19933;-64
2020/12/10 08:22:13;;;;;;;;;;;;;;;;;;5028725;28;19932;-64
2020/12/10 08:24:40;;;;;;;;;;;;;;;;;;5028349;28;20012;-63
2020/12/10 08:32:28;;;;;;;;;;;;;;;;;;5031848;28;19921;-63
2020/12/10 08:37:35;;;;;;;;;;;;;;;;;;5035611;28;19925;-64
2020/12/10 08:40:02;;;;;;;;;;;;;;;;;;5026683;28;19925;-64
2020/12/10 08:45:09;;;;;;;;;;;;;;;;;;5034346;28;19927;-65
2020/12/10 08:47:36;;;;;;;;;;;;;;;;;;5026602;28;19925;-65
2020/12/10 08:50:02;;;;;;;;;;;;;;;;;;5035443;28;19987;-63
2020/12/10 08:52:31;;;;;;;;;;;;;;;;;;5033824;28;19944;-64
2020/12/10 08:54:57;;;;;;;;;;;;;;;;;;5024483;28;19932;-64
2020/12/10 09:02:48;;;;;;;;;;;;;;;;;;5027560;28;19924;-65
2020/12/10 09:05:15;;;;;;;;;;;;;;;;;;5021023;28;20429;-62
2020/12/10 09:13:04;;;;;;;;;;;;;;;;;;5022287;28;19921;-63
2020/12/10 09:15:31;;;;;;;;;;;;;;;;;;5031445;28;19925;-63
2020/12/10 09:17:57;;;;;;;;;;;;;;;;;;5032910;28;19932;-63
2020/12/10 09:20:24;;;;;;;;;;;;;;;;;;5029796;28;19943;-63
2020/12/10 09:22:50;;;;;;;;;;;;;;;;;;5034144;28;19925;-64
2020/12/10 09:25:17;;;;;;;;;;;;;;;;;;5018420;28;20016;-65
2020/12/10 09:30:26;;;;;;;;;;;;;;;;;;5016411;28;19932;-64
2020/12/10 09:35:34;;;;;;;;;;;;;;;;;;5024622;28;19949;-65
2020/12/10 09:38:03;;;;;;;;;;;;;;;;;;5028795;28;20301;-65
2020/12/10 09:43:11;;;;;;;;;;;;;;;;;;5019188;28;19922;-64
2020/12/10 09:45:38;;;;;;;;;;;;;;;;;;5031895;28;19993;-62
2020/12/10 09:48:04;;;;;;;;;;;;;;;;;;5033597;28;19925;-65
2020/12/10 09:50:34;;;;;;;;;;;;;;;;;;5028361;28;20461;-64
2020/12/10 09:53:06;;;;;;;;;;;;;;;;;;5032852;28;19925;-65
2020/12/10 09:58:19;;;;;;;;;;;;;;;;;;5026696;28;19921;-63
2020/12/10 10:00:49;;;;;;;;;;;;;;;;;;5030162;28;19932;-64
2020/12/10 10:03:16;;;;;;;;;;;;;;;;;;5033099;28;19925;-66
2020/12/10 10:05:42;;;;;;;;;;;;;;;;;;5030187;28;20016;-64
2020/12/10 10:10:50;;;;;;;;;;;;;;;;;;5030595;28;19974;-65
2020/12/10 10:13:16;;;;;;;;;;;;;;;;;;5031965;28;19925;-64
2020/12/10 10:15:45;;;;;;;;;;;;;;;;;;5028075;28;20012;-65
2020/12/10 10:18:11;;;;;;;;;;;;;;;;;;5025972;28;19925;-66
2020/12/10 10:20:38;;;;;;;;;;;;;;;;;;5026236;28;19989;-64
2020/12/10 10:23:04;;;;;;;;;;;;;;;;;;5030447;28;19925;-63
2020/12/10 10:25:31;;;;;;;;;;;;;;;;;;5025845;28;19925;-66
2020/12/10 10:27:57;;;;;;;;;;;;;;;;;;5031708;28;19931;-63
2020/12/10 10:33:06;;;;;;;;;;;;;;;;;;5029509;28;20959;-63
2020/12/10 10:35:33;;;;;;;;;;;;;;;;;;5030378;28;20365;-64
2020/12/10 10:37:59;;;;;;;;;;;;;;;;;;5026605;28;20116;-66
2020/12/10 10:45:49;;;;;;;;;;;;;;;;;;5023971;28;20047;-64
2020/12/10 10:53:40;;;;;;;;;;;;;;;;;;5007849;28;20355;-65
2020/12/10 10:56:06;;;;;;;;;;;;;;;;;;5010006;28;20016;-64
2020/12/10 10:58:33;;;;;;;;;;;;;;;;;;5009688;28;19933;-64
2020/12/10 11:03:45;;;;;;;;;;;;;;;;;;5010665;28;19922;-65
2020/12/10 11:06:12;;;;;;;;;;;;;;;;;;5010969;28;19932;-64
2020/12/10 11:08:38;;;;;;;;;;;;;;;;;;5011586;28;19940;-64
2020/12/10 11:11:05;;;;;;;;;;;;;;;;;;5003242;28;20391;-64
2020/12/10 11:13:31;;;;;;;;;;;;;;;;;;5006389;28;19930;-64
2020/12/10 11:18:39;;;;;;;;;;;;;;;;;;5012714;28;19971;-65
2020/12/10 11:23:46;;;;;;;;;;;;;;;;;;5011469;28;19928;-64
2020/12/10 11:26:12;;;;;;;;;;;;;;;;;;5011983;28;19936;-64
2020/12/10 11:28:39;;;;;;;;;;;;;;;;;;5012969;28;19926;-63
2020/12/10 11:33:46;;;;;;;;;;;;;;;;;;5000558;28;20013;-64
2020/12/10 11:36:13;;;;;;;;;;;;;;;;;;5009235;28;19929;-64
2020/12/10 11:46:45;;;;;;;;;;;;;;;;;;5003646;28;20374;-64
2020/12/10 11:51:54;;;;;;;;;;;;;;;;;;5010145;28;19921;-63
2020/12/10 11:54:20;;;;;;;;;;;;;;;;;;5010051;28;19929;-65
2020/12/10 11:56:48;;;;;;;;;;;;;;;;;;5013148;28;19926;-64
2020/12/10 11:59:15;;;;;;;;;;;;;;;;;;5008184;28;19961;-64
2020/12/10 12:01:41;;;;;;;;;;;;;;;;;;5011933;28;20023;-65
2020/12/10 12:04:08;;;;;;;;;;;;;;;;;;5007541;28;19926;-65
2020/12/10 12:06:34;;;;;;;;;;;;;;;;;;5010594;28;20055;-65
2020/12/10 12:09:01;;;;;;;;;;;;;;;;;;5013089;28;19948;-64
2020/12/10 12:11:27;;;;;;;;;;;;;;;;;;5010430;28;20052;-64
2020/12/10 12:16:34;;;;;;;;;;;;;;;;;;5012242;28;19921;-65
2020/12/10 12:19:05;;;;;;;;;;;;;;;;;;5001193;28;19932;-65
2020/12/10 12:21:31;;;;;;;;;;;;;;;;;;5002424;28;19925;-65
2020/12/10 12:23:58;;;;;;;;;;;;;;;;;;5012351;28;19989;-63
2020/12/10 12:26:24;;;;;;;;;;;;;;;;;;5006720;28;20096;-65
2020/12/10 12:28:51;;;;;;;;;;;;;;;;;;5010113;28;19926;-65
2020/12/10 12:31:17;;;;;;;;;;;;;;;;;;5016246;28;20020;-65
2020/12/10 12:33:44;;;;;;;;;;;;;;;;;;5009299;28;19926;-65
2020/12/10 12:38:51;;;;;;;;;;;;;;;;;;5009958;28;20086;-64
2020/12/10 12:43:58;;;;;;;;;;;;;;;;;;5013826;28;19937;-63
2020/12/10 12:46:25;;;;;;;;;;;;;;;;;;5008802;28;19947;-63
2020/12/10 12:51:32;;;;;;;;;;;;;;;;;;5010530;28;19925;-64
2020/12/10 12:53:59;;;;;;;;;;;;;;;;;;5013480;28;19925;-64
2020/12/10 12:56:25;;;;;;;;;;;;;;;;;;5010744;28;20403;-64
2020/12/10 12:58:52;;;;;;;;;;;;;;;;;;5011806;28;19926;-65
2020/12/10 13:01:18;;;;;;;;;;;;;;;;;;5011118;28;19972;-61
2020/12/10 13:03:45;;;;;;;;;;;;;;;;;;5014427;28;20444;-64
2020/12/10 13:06:11;;;;;;;;;;;;;;;;;;5014885;28;19976;-63
2020/12/10 13:08:42;;;;;;;;;;;;;;;;;;5013448;28;19925;-63
2020/12/10 13:11:08;;;;;;;;;;;;;;;;;;5011018;28;19932;-64
2020/12/10 13:13:35;;;;;;;;;;;;;;;;;;5010440;28;20397;-63
2020/12/10 13:16:01;;;;;;;;;;;;;;;;;;5009746;28;19931;-64
2020/12/10 13:21:09;;;;;;;;;;;;;;;;;;5008679;28;20293;-59
2020/12/10 13:23:35;;;;;;;;;;;;;;;;;;5010765;28;19932;-59
2020/12/10 13:26:02;;;;;;;;;;;;;;;;;;5010168;28;19925;-63
2020/12/10 13:28:28;;;;;;;;;;;;;;;;;;5008287;28;19926;-64
2020/12/10 13:33:38;;;;;;;;;;;;;;;;;;5010862;28;19925;-60
2020/12/10 13:36:05;;;;;;;;;;;;;;;;;;5013204;28;19925;-64
2020/12/10 13:38:31;;;;;;;;;;;;;;;;;;5013667;28;19934;-62
2020/12/10 13:40:58;;;;;;;;;;;;;;;;;;5007699;28;20404;-62
2020/12/10 13:43:24;;;;;;;;;;;;;;;;;;5014235;28;19925;-65
2020/12/10 13:45:51;;;;;;;;;;;;;;;;;;5009504;28;19925;-62
2020/12/10 13:48:17;;;;;;;;;;;;;;;;;;5015280;28;19925;-63
2020/12/10 13:53:25;;;;;;;;;;;;;;;;;;5015163;28;19921;-63
2020/12/10 13:55:51;;;;;;;;;;;;;;;;;;5012167;28;20473;-63
2020/12/10 13:58:18;;;;;;;;;;;;;;;;;;5014041;28;19926;-62
2020/12/10 14:00:44;;;;;;;;;;;;;;;;;;5007511;28;20399;-64
2020/12/10 14:05:59;;;;;;;;;;;;;;;;;;5007943;28;19926;-63
2020/12/10 14:08:26;;;;;;;;;;;;;;;;;;5006949;28;19925;-63
2020/12/10 14:11:00;;;;;;;;;;;;;;;;;;5014211;28;19936;-64
2020/12/10 14:13:26;;;;;;;;;;;;;;;;;;5014259;28;19932;-65
2020/12/10 14:15:53;;;;;;;;;;;;;;;;;;5005126;28;20348;-62
2020/12/10 14:18:21;;;;;;;;;;;;;;;;;;5013736;28;20033;-62
2020/12/10 14:20:47;;;;;;;;;;;;;;;;;;5008658;28;19929;-62
2020/12/10 14:23:14;;;;;;;;;;;;;;;;;;5014738;28;20115;-64
2020/12/10 14:25:40;;;;;;;;;;;;;;;;;;5001299;28;19926;-65
2020/12/10 14:28:07;;;;;;;;;;;;;;;;;;5000580;28;19965;-64
2020/12/10 14:30:33;;;;;;;;;;;;;;;;;;5003559;28;19947;-64
2020/12/10 14:33:00;;;;;;;;;;;;;;;;;;5011787;28;19936;-63
2020/12/10 14:35:27;;;;;;;;;;;;;;;;;;5009992;28;20012;-63
2020/12/10 14:37:53;;;;;;;;;;;;;;;;;;5011638;28;19929;-64
2020/12/10 14:40:20;;;;;;;;;;;;;;;;;;5012119;28;19926;-63
2020/12/10 14:42:46;;;;;;;;;;;;;;;;;;5004811;28;19987;-63
2020/12/10 14:45:13;;;;;;;;;;;;;;;;;;5007587;28;19929;-63
2020/12/10 14:47:39;;;;;;;;;;;;;;;;;;5004142;28;19925;-63
2020/12/10 14:50:06;;;;;;;;;;;;;;;;;;5008989;28;19925;-64
2020/12/10 14:52:34;;;;;;;;;;;;;;;;;;5003905;28;20441;-64
2020/12/10 14:55:01;;;;;;;;;;;;;;;;;;5000445;28;19926;-63
2020/12/10 14:57:27;;;;;;;;;;;;;;;;;;5004451;28;19925;-63
2020/12/10 14:59:54;;;;;;;;;;;;;;;;;;5002063;28;19930;-63
2020/12/10 15:05:02;;;;;;;;;;;;;;;;;;5014256;28;20006;-63
2020/12/10 15:07:29;;;;;;;;;;;;;;;;;;5009315;28;19968;-62
2020/12/10 15:09:55;;;;;;;;;;;;;;;;;;4997764;28;19932;-64
2020/12/10 15:12:22;;;;;;;;;;;;;;;;;;4998134;28;19930;-61
2020/12/10 15:14:50;;;;;;;;;;;;;;;;;;5008553;28;20005;-64
2020/12/10 15:17:17;;;;;;;;;;;;;;;;;;5010011;28;19941;-61
2020/12/10 15:19:43;;;;;;;;;;;;;;;;;;5006348;28;19929;-62
2020/12/10 15:22:10;;;;;;;;;;;;;;;;;;5009027;28;19926;-63
2020/12/10 15:27:17;;;;;;;;;;;;;;;;;;5009830;28;20378;-61
2020/12/10 15:32:26;;;;;;;;;;;;;;;;;;5003252;28;20293;-62
2020/12/10 15:34:52;;;;;;;;;;;;;;;;;;5009659;28;19929;-59
2020/12/10 15:37:19;;;;;;;;;;;;;;;;;;5011920;28;20410;-62
2020/12/10 15:39:45;;;;;;;;;;;;;;;;;;4999584;28;19926;-61
2020/12/10 15:42:12;;;;;;;;;;;;;;;;;;5004959;28;19932;-62
2020/12/10 15:44:38;;;;;;;;;;;;;;;;;;5002247;28;20157;-64
2020/12/10 15:47:05;;;;;;;;;;;;;;;;;;5012264;28;20449;-61
2020/12/10 15:49:31;;;;;;;;;;;;;;;;;;5001399;28;19968;-63
2020/12/10 15:51:58;;;;;;;;;;;;;;;;;;5009753;28;19926;-64
2020/12/10 15:54:24;;;;;;;;;;;;;;;;;;5006969;28;20469;-62
2020/12/10 15:56:51;;;;;;;;;;;;;;;;;;5012664;28;20016;-63
2020/12/10 15:59:17;;;;;;;;;;;;;;;;;;5008407;28;20040;-65
2020/12/10 16:01:44;;;;;;;;;;;;;;;;;;4993429;28;20020;-62
2020/12/10 16:04:10;;;;;;;;;;;;;;;;;;5001731;28;19981;-64
2020/12/10 16:06:37;;;;;;;;;;;;;;;;;;5011434;28;19932;-62
2020/12/10 16:09:03;;;;;;;;;;;;;;;;;;5009757;28;19926;-61
2020/12/10 16:11:30;;;;;;;;;;;;;;;;;;5000364;28;19926;-62
2020/12/10 16:13:56;;;;;;;;;;;;;;;;;;5012402;28;19983;-64
2020/12/10 16:16:23;;;;;;;;;;;;;;;;;;5006295;28;20279;-62
2020/12/10 16:18:49;;;;;;;;;;;;;;;;;;5004550;28;20016;-61
2020/12/10 16:21:16;;;;;;;;;;;;;;;;;;5006144;28;19925;-60
2020/12/10 16:23:42;;;;;;;;;;;;;;;;;;5012571;28;19980;-62
2020/12/10 16:26:09;;;;;;;;;;;;;;;;;;5008834;28;20004;-61
2020/12/10 16:28:35;;;;;;;;;;;;;;;;;;5007594;28;20468;-63
2020/12/10 16:31:02;;;;;;;;;;;;;;;;;;5011555;28;20012;-62
2020/12/10 16:33:28;;;;;;;;;;;;;;;;;;5003179;28;20309;-63
2020/12/10 16:35:55;;;;;;;;;;;;;;;;;;5008651;28;19925;-64
2020/12/10 16:38:22;;;;;;;;;;;;;;;;;;5012600;28;19986;-62
2020/12/10 16:40:48;;;;;;;;;;;;;;;;;;5007899;28;19932;-64
2020/12/10 16:43:15;;;;;;;;;;;;;;;;;;5007492;28;19929;-63
2020/12/10 16:45:41;;;;;;;;;;;;;;;;;;5013351;28;20375;-62
2020/12/10 16:48:08;;;;;;;;;;;;;;;;;;5008617;28;20016;-61
2020/12/10 16:50:34;;;;;;;;;;;;;;;;;;5025816;22;19970;-65
2020/12/10 16:53:01;;;;;;;;;;;;;;;;;;5031541;28;19932;-66
2020/12/10 16:55:27;;;;;;;;;;;;;;;;;;5032544;28;19964;-64
2020/12/10 16:57:54;;;;;;;;;;;;;;;;;;5035226;28;20012;-64
2020/12/10 17:00:20;;;;;;;;;;;;;;;;;;5028522;28;20020;-64
2020/12/10 17:02:47;;;;;;;;;;;;;;;;;;5034515;28;20362;-65
2020/12/10 17:05:13;;;;;;;;;;;;;;;;;;5034709;28;19932;-64
2020/12/10 17:07:40;;;;;;;;;;;;;;;;;;5034752;28;20282;-63
2020/12/10 17:10:06;;;;;;;;;;;;;;;;;;5034720;28;20340;-66
2020/12/10 17:12:33;;;;;;;;;;;;;;;;;;5035625;28;19931;-66
2020/12/10 17:14:59;;;;;;;;;;;;;;;;;;5033820;28;19925;-66
2020/12/10 17:17:26;;;;;;;;;;;;;;;;;;5035732;28;20351;-67
2020/12/10 17:19:53;;;;;;;;;;;;;;;;;;5035689;28;19925;-66
2020/12/10 17:22:20;;;;;;;;;;;;;;;;;;5033170;28;20373;-67
2020/12/10 17:24:48;;;;;;;;;;;;;;;;;;5035706;28;19932;-68
2020/12/10 17:27:14;;;;;;;;;;;;;;;;;;5036143;28;19929;-68
2020/12/10 17:29:41;;;;;;;;;;;;;;;;;;5030030;28;19925;-67
2020/12/10 17:32:07;;;;;;;;;;;;;;;;;;5035485;28;19925;-68
2020/12/10 17:34:34;;;;;;;;;;;;;;;;;;5033983;28;20333;-67
2020/12/10 17:37:00;;;;;;;;;;;;;;;;;;5035972;28;19929;-67
2020/12/10 17:39:27;;;;;;;;;;;;;;;;;;5036226;28;19928;-67
2020/12/10 17:41:53;;;;;;;;;;;;;;;;;;5036145;28;20506;-70
2020/12/10 17:44:20;;;;;;;;;;;;;;;;;;5034021;28;19935;-67
2020/12/10 17:46:46;;;;;;;;;;;;;;;;;;5034415;28;19929;-65
2020/12/10 17:49:13;;;;;;;;;;;;;;;;;;5034929;28;19971;-65
2020/12/10 17:51:39;;;;;;;;;;;;;;;;;;5032806;28;19993;-64
2020/12/10 17:54:06;;;;;;;;;;;;;;;;;;5035817;28;19925;-67
2020/12/10 17:56:33;;;;;;;;;;;;;;;;;;5037697;28;19925;-66
2020/12/10 17:58:59;;;;;;;;;;;;;;;;;;5036829;28;19925;-66
2020/12/10 18:01:26;;;;;;;;;;;;;;;;;;5030011;28;19932;-65
2020/12/10 18:03:52;;;;;;;;;;;;;;;;;;5032992;28;19961;-66
2020/12/10 18:06:19;;;;;;;;;;;;;;;;;;5034941;28;20024;-66
2020/12/10 18:08:45;;;;;;;;;;;;;;;;;;5035951;28;19960;-65
2020/12/10 18:11:12;;;;;;;;;;;;;;;;;;5034976;28;19926;-67
2020/12/10 18:13:38;;;;;;;;;;;;;;;;;;5033633;28;19925;-66
2020/12/10 18:16:05;;;;;;;;;;;;;;;;;;5033155;28;20027;-65
2020/12/10 18:18:31;;;;;;;;;;;;;;;;;;5033478;28;20306;-65
2020/12/10 18:20:58;;;;;;;;;;;;;;;;;;5031391;28;19925;-65
2020/12/10 18:23:24;;;;;;;;;;;;;;;;;;5033321;28;19925;-66
2020/12/10 18:25:51;;;;;;;;;;;;;;;;;;5032044;28;20195;-65
2020/12/10 18:28:17;;;;;;;;;;;;;;;;;;5032622;28;19931;-65